Time;durP1;ratioP1;P1;durP2;ratioP2;P2;SDS_P1;SDS_P2;PMS_P1;PMS_P2;Temp;Humidity;BMP_temperature;BMP_pressure;BME280_temperature;BME280_humidity;BME280_pressure;Samples;Min_cycle;Max_cycle;Signal;HPM_P1;HPM_P2
2023/09/24 00:04:46;;;;;;;11.33;6.13;;;12.60;98.40;;;;;;20911575;28;20295;-65
2023/09/24 00:14:48;;;;;;;7.23;4.90;;;12.50;98.60;;;;;;20911834;28;20254;-65
2023/09/24 00:24:50;;;;;;;6.03;4.10;;;12.40;98.70;;;;;;20909411;28;20263;-62
2023/09/24 00:34:52;;;;;;;13.30;7.53;;;12.30;98.80;;;;;;20843395;28;20415;-62
2023/09/24 00:44:55;;;;;;;11.30;7.40;;;12.40;98.70;;;;;;20843041;28;20204;-61
2023/09/24 00:54:57;;;;;;;8.40;5.50;;;12.30;98.70;;;;;;20841856;28;20236;-62
2023/09/24 01:05:00;;;;;;;7.37;5.00;;;12.30;98.80;;;;;;20841180;28;20298;-62
2023/09/24 01:15:02;;;;;;;7.20;4.00;;;12.10;98.80;;;;;;20840681;28;20240;-61
2023/09/24 01:25:05;;;;;;;10.43;3.90;;;11.90;98.80;;;;;;20839468;28;20235;-62
2023/09/24 01:35:08;;;;;;;5.47;3.70;;;11.90;98.80;;;;;;20838791;28;20236;-62
2023/09/24 01:45:10;;;;;;;5.83;4.17;;;11.90;98.80;;;;;;20838205;28;20617;-62
2023/09/24 01:55:15;;;;;;;7.03;3.67;;;11.80;98.70;;;;;;20837411;28;20235;-62
2023/09/24 02:05:19;;;;;;;4.90;3.80;;;11.70;98.80;;;;;;20836650;28;20219;-62
2023/09/24 02:15:23;;;;;;;12.83;8.53;;;11.70;98.60;;;;;;20835683;28;20247;-62
2023/09/24 02:25:26;;;;;;;28.10;5.40;;;11.60;98.80;;;;;;20835184;28;20228;-62
2023/09/24 02:35:29;;;;;;;9.37;5.50;;;11.60;99.00;;;;;;20833970;28;20599;-62
2023/09/24 02:45:31;;;;;;;7.93;5.90;;;11.60;99.50;;;;;;20833401;28;20258;-62
2023/09/24 02:55:33;;;;;;;8.27;5.20;;;11.80;99.50;;;;;;20831947;28;20322;-64
2023/09/24 03:05:36;;;;;;;8.17;5.23;;;11.90;99.80;;;;;;20831912;28;20257;-61
2023/09/24 03:15:38;;;;;;;29.80;5.17;;;11.80;99.90;;;;;;20831113;28;20247;-62
2023/09/24 03:25:40;;;;;;;41.13;6.77;;;11.70;99.90;;;;;;20830879;28;20240;-62
2023/09/24 03:35:42;;;;;;;10.33;6.37;;;11.70;99.90;;;;;;20830213;28;20236;-62
2023/09/24 03:45:44;;;;;;;10.20;5.93;;;11.60;99.90;;;;;;20830085;28;20278;-62
2023/09/24 03:55:47;;;;;;;22.53;11.27;;;11.80;99.90;;;;;;20830196;28;20322;-62
2023/09/24 04:05:50;;;;;;;29.07;5.97;;;11.70;99.90;;;;;;20841327;28;20211;-62
2023/09/24 04:15:52;;;;;;;10.33;6.00;;;11.80;99.90;;;;;;20844931;28;20240;-62
2023/09/24 04:25:54;;;;;;;10.33;5.23;;;11.80;99.90;;;;;;20844361;28;20279;-61
2023/09/24 04:35:57;;;;;;;5.57;4.63;;;11.80;99.90;;;;;;20843415;28;20327;-62
2023/09/24 04:46:07;;;;;;;19.00;5.30;;;11.80;99.90;;;;;;20842711;28;20291;-62
2023/09/24 04:56:09;;;;;;;32.00;4.90;;;11.70;99.90;;;;;;20862073;28;20236;-62
2023/09/24 05:06:10;;;;;;;19.30;5.40;;;11.70;99.90;;;;;;20880611;28;20211;-62
2023/09/24 05:16:12;;;;;;;11.83;5.30;;;11.60;99.90;;;;;;20898783;28;20246;-62
2023/09/24 05:26:14;;;;;;;17.93;4.90;;;11.50;99.90;;;;;;20894284;28;20240;-63
2023/09/24 05:36:16;;;;;;;5.00;4.40;;;11.60;99.90;;;;;;20844775;28;20240;-63
2023/09/24 05:46:18;;;;;;;10.20;4.40;;;11.60;99.90;;;;;;20838163;28;20627;-64
2023/09/24 05:56:20;;;;;;;16.17;4.80;;;11.60;99.90;;;;;;20820333;28;20650;-65
2023/09/24 06:06:22;;;;;;;16.23;4.47;;;11.60;99.90;;;;;;20836566;28;20207;-65
2023/09/24 06:16:23;;;;;;;6.57;4.77;;;11.50;99.90;;;;;;20840632;28;20692;-69
2023/09/24 06:26:25;;;;;;;12.73;5.40;;;11.60;99.90;;;;;;20879519;28;20747;-61
2023/09/24 06:36:27;;;;;;;48.73;6.70;;;11.60;99.90;;;;;;20876690;28;20587;-61
2023/09/24 06:46:29;;;;;;;6.53;5.00;;;11.60;99.90;;;;;;20832625;28;20289;-61
2023/09/24 06:56:32;;;;;;;4.87;4.37;;;11.50;99.90;;;;;;20897503;28;20238;-61
2023/09/24 07:06:34;;;;;;;16.77;4.40;;;11.60;99.90;;;;;;20914644;28;20206;-61
2023/09/24 07:16:36;;;;;;;15.27;4.57;;;11.60;99.90;;;;;;20880666;28;20249;-65
2023/09/24 07:26:38;;;;;;;4.70;4.10;;;11.50;99.90;;;;;;20899831;28;20277;-62
2023/09/24 07:36:40;;;;;;;7.90;5.10;;;11.70;99.90;;;;;;20912255;28;20239;-65
2023/09/24 07:47:02;;;;;;;5.63;4.73;;;11.80;99.90;;;;;;20913310;28;20206;-63
2023/09/24 07:57:05;;;;;;;5.57;4.17;;;12.00;99.90;;;;;;20911773;28;20228;-62
2023/09/24 08:07:07;;;;;;;4.57;3.90;;;12.30;99.90;;;;;;20910745;28;20688;-62
2023/09/24 08:17:09;;;;;;;4.30;3.70;;;12.70;99.90;;;;;;20910668;28;20227;-62
2023/09/24 08:27:10;;;;;;;4.30;3.90;;;13.00;99.90;;;;;;20856955;28;20591;-62
2023/09/24 08:37:12;;;;;;;6.60;3.90;;;13.30;99.90;;;;;;20827558;28;20239;-61
2023/09/24 08:47:14;;;;;;;7.57;3.50;;;13.80;99.90;;;;;;20812133;28;20612;-62
2023/09/24 08:57:16;;;;;;;6.60;3.20;;;14.10;99.90;;;;;;20841383;28;20717;-62
2023/09/24 09:07:18;;;;;;;4.17;3.30;;;14.30;99.80;;;;;;20840606;28;20579;-63
2023/09/24 09:17:19;;;;;;;4.10;2.80;;;14.80;99.50;;;;;;20839761;28;20246;-63
2023/09/24 09:27:21;;;;;;;4.57;2.47;;;15.10;98.70;;;;;;20876229;28;20228;-63
2023/09/24 09:37:23;;;;;;;6.60;2.67;;;15.50;98.00;;;;;;20920197;28;20238;-66
2023/09/24 09:47:27;;;;;;;4.60;2.93;;;15.90;97.60;;;;;;20919507;28;20609;-62
2023/09/24 09:57:32;;;;;;;5.60;2.83;;;16.20;97.00;;;;;;20913782;28;20240;-62
2023/09/24 10:07:40;;;;;;;4.63;2.70;;;16.50;96.40;;;;;;20876411;28;20207;-64
2023/09/24 10:17:43;;;;;;;5.97;2.93;;;16.80;96.00;;;;;;20835073;28;20317;-65
2023/09/24 10:28:01;;;;;;;6.27;2.80;;;17.10;95.20;;;;;;20875248;28;20242;-65
2023/09/24 10:38:11;;;;;;;5.17;2.53;;;17.30;94.60;;;;;;20915756;28;20640;-63
2023/09/24 10:48:17;;;;;;;4.50;2.60;;;17.50;94.00;;;;;;20915664;28;20298;-62
2023/09/24 10:58:19;;;;;;;4.17;2.10;;;17.70;93.20;;;;;;20905013;28;20239;-66
2023/09/24 11:08:27;;;;;;;4.00;2.00;;;18.10;92.60;;;;;;20876723;28;20300;-64
2023/09/24 11:18:30;;;;;;;3.33;1.80;;;18.30;91.30;;;;;;20830518;28;20239;-62
2023/09/24 11:28:32;;;;;;;4.00;1.67;;;18.60;90.30;;;;;;20876701;28;20231;-62
2023/09/24 11:38:35;;;;;;;2.10;1.53;;;18.80;87.10;;;;;;20912007;28;20234;-63
2023/09/24 11:48:38;;;;;;;3.77;1.83;;;19.10;84.50;;;;;;20895033;28;20208;-63
2023/09/24 11:58:41;;;;;;;3.87;2.07;;;19.50;82.40;;;;;;20910924;28;20239;-62
2023/09/24 12:08:43;;;;;;;4.70;2.07;;;19.70;80.10;;;;;;20911154;28;20216;-62
2023/09/24 12:18:46;;;;;;;3.57;1.70;;;20.10;78.90;;;;;;20910509;28;20669;-62
2023/09/24 12:28:48;;;;;;;2.60;1.20;;;20.20;77.10;;;;;;20875734;28;20235;-62
2023/09/24 12:38:50;;;;;;;4.80;1.33;;;20.40;74.90;;;;;;20843659;28;20290;-68
2023/09/24 12:48:52;;;;;;;2.63;1.43;;;20.40;72.30;;;;;;20842523;28;20251;-62
2023/09/24 12:59:01;;;;;;;1.70;1.03;;;20.40;70.30;;;;;;20841750;28;20687;-62
2023/09/24 13:09:03;;;;;;;2.77;1.33;;;20.50;69.00;;;;;;20841528;28;20212;-62
2023/09/24 13:19:05;;;;;;;2.07;1.10;;;20.60;67.00;;;;;;20840099;28;20290;-62
2023/09/24 13:29:07;;;;;;;3.00;1.10;;;20.60;65.60;;;;;;20863352;28;20597;-63
2023/09/24 13:39:10;;;;;;;2.03;1.30;;;20.70;65.00;;;;;;20864955;28;20240;-62
2023/09/24 13:49:12;;;;;;;2.50;1.40;;;20.80;64.10;;;;;;20865304;28;20267;-62
2023/09/24 13:59:14;;;;;;;1.70;0.90;;;21.10;63.50;;;;;;20837641;28;20232;-62
2023/09/24 14:19:36;;;;;;;0.80;0.80;;;22.30;59.90;;;;;;20835389;28;20315;-64
2023/09/24 14:29:37;;;;;;;1.70;0.90;;;23.40;57.80;;;;;;20890514;28;20671;-64
2023/09/24 14:39:39;;;;;;;1.23;0.93;;;23.10;57.60;;;;;;20916682;28;20302;-63
2023/09/24 14:49:41;;;;;;;1.87;1.10;;;23.10;57.10;;;;;;20914412;28;20208;-62
2023/09/24 14:59:42;;;;;;;1.57;0.80;;;24.40;55.30;;;;;;20914851;28;20216;-62
2023/09/24 15:09:44;;;;;;;2.20;1.20;;;23.50;55.00;;;;;;20914653;28;20235;-63
2023/09/24 15:19:46;;;;;;;3.63;2.80;;;22.50;56.10;;;;;;20913457;28;20212;-62
2023/09/24 15:29:48;;;;;;;1.43;1.10;;;21.90;56.60;;;;;;20855228;28;20236;-61
2023/09/24 15:39:50;;;;;;;1.60;1.30;;;21.50;57.50;;;;;;20830321;28;20263;-63
2023/09/24 15:49:53;;;;;;;2.73;1.40;;;21.40;58.00;;;;;;20850620;28;20746;-61
2023/09/24 15:59:54;;;;;;;2.53;1.40;;;21.10;58.70;;;;;;20838499;28;20634;-61
2023/09/24 16:09:56;;;;;;;2.13;1.20;;;20.70;59.20;;;;;;20845966;28;20260;-64
2023/09/24 16:19:58;;;;;;;1.63;1.10;;;20.40;59.90;;;;;;20845067;28;20247;-63
2023/09/24 16:29:59;;;;;;;2.10;1.40;;;20.10;60.20;;;;;;20903076;28;20326;-63
2023/09/24 16:40:01;;;;;;;1.57;1.47;;;20.00;61.10;;;;;;20926487;28;20557;-63
2023/09/24 16:50:03;;;;;;;2.13;1.50;;;19.80;61.70;;;;;;20924090;28;20236;-61
2023/09/24 17:00:06;;;;;;;4.77;1.57;;;19.60;62.90;;;;;;20863263;28;20205;-61
2023/09/24 17:10:09;;;;;;;2.67;1.60;;;19.50;63.30;;;;;;20840559;28;20225;-61
2023/09/24 17:20:11;;;;;;;2.90;1.60;;;19.20;63.90;;;;;;20840467;28;20573;-61
2023/09/24 17:30:13;;;;;;;2.30;1.47;;;19.00;65.50;;;;;;20900302;28;20761;-61
2023/09/24 17:40:15;;;;;;;3.47;2.43;;;18.80;65.80;;;;;;20893896;28;20215;-61
2023/09/24 17:50:17;;;;;;;8.83;4.50;;;18.40;66.50;;;;;;20838129;28;20234;-64
2023/09/24 18:00:18;;;;;;;23.93;11.97;;;18.20;67.90;;;;;;20837360;28;20369;-62
2023/09/24 18:10:20;;;;;;;8.50;4.30;;;17.90;68.90;;;;;;20836673;28;20281;-62
2023/09/24 18:20:22;;;;;;;4.60;2.20;;;17.60;70.20;;;;;;20835558;28;20208;-64
2023/09/24 18:30:24;;;;;;;3.30;2.33;;;17.30;71.90;;;;;;20834751;28;20253;-63
2023/09/24 18:40:26;;;;;;;3.73;2.70;;;17.10;73.50;;;;;;20834898;28;20206;-66
2023/09/24 18:50:28;;;;;;;4.53;2.10;;;17.00;73.80;;;;;;20863938;28;20322;-65
2023/09/24 19:00:30;;;;;;;3.90;2.50;;;16.70;75.10;;;;;;20913426;28;20679;-64
2023/09/24 19:10:32;;;;;;;5.50;3.23;;;16.50;76.60;;;;;;20913170;28;20713;-65
2023/09/24 19:20:37;;;;;;;5.23;3.47;;;16.30;78.20;;;;;;20912769;28;20231;-63
2023/09/24 19:30:43;;;;;;;6.83;3.73;;;16.10;79.60;;;;;;20910605;28;20335;-64
2023/09/24 19:40:44;;;;;;;5.23;3.47;;;16.00;80.40;;;;;;20911308;28;20302;-63
2023/09/24 19:50:46;;;;;;;3.80;2.73;;;15.80;81.80;;;;;;20910379;28;20235;-63
2023/09/24 20:00:48;;;;;;;3.00;2.40;;;15.50;83.40;;;;;;20910355;28;20231;-63
2023/09/24 20:10:50;;;;;;;6.20;3.57;;;15.40;85.20;;;;;;20892606;28;20232;-63
2023/09/24 20:20:51;;;;;;;5.70;4.50;;;15.20;86.60;;;;;;20909045;28;20212;-62
2023/09/24 20:30:58;;;;;;;8.53;3.77;;;15.00;88.60;;;;;;20908168;28;20695;-63
2023/09/24 20:41:13;;;;;;;4.63;3.50;;;14.90;90.10;;;;;;20879143;28;20295;-63
2023/09/24 20:51:15;;;;;;;3.90;3.30;;;14.70;90.80;;;;;;20840069;28;20233;-62
2023/09/24 21:01:18;;;;;;;6.00;3.03;;;14.60;91.40;;;;;;20839630;28;20212;-63
2023/09/24 21:11:20;;;;;;;12.70;3.10;;;14.50;92.10;;;;;;20865426;28;20236;-62
2023/09/24 21:21:21;;;;;;;5.13;2.60;;;14.40;92.60;;;;;;20820649;28;20207;-64
2023/09/24 21:31:23;;;;;;;4.63;2.83;;;14.40;93.20;;;;;;20837272;28;20705;-62
2023/09/24 21:41:25;;;;;;;4.87;2.60;;;14.20;93.50;;;;;;20837064;28;20632;-62
2023/09/24 21:51:27;;;;;;;3.73;2.77;;;13.90;93.90;;;;;;20835924;28;20236;-63
2023/09/24 22:01:28;;;;;;;3.37;2.50;;;13.80;94.40;;;;;;20834415;28;20663;-65
2023/09/24 22:11:30;;;;;;;4.07;2.70;;;13.80;94.80;;;;;;20834517;28;20235;-64
2023/09/24 22:21:32;;;;;;;3.47;2.50;;;13.80;95.00;;;;;;20834557;28;20213;-64
2023/09/24 22:31:35;;;;;;;4.23;2.60;;;13.60;95.50;;;;;;20815183;28;20318;-65
2023/09/24 22:41:37;;;;;;;4.13;2.50;;;13.60;95.80;;;;;;20832326;28;20660;-67
2023/09/24 22:51:38;;;;;;;4.37;2.60;;;13.60;96.00;;;;;;20831140;28;20275;-65
2023/09/24 23:01:40;;;;;;;5.37;2.70;;;13.30;96.10;;;;;;20830438;28;20207;-66
2023/09/24 23:11:43;;;;;;;5.60;3.23;;;13.30;96.50;;;;;;20829183;28;20665;-64
2023/09/24 23:21:44;;;;;;;5.20;2.50;;;13.30;96.60;;;;;;20829670;28;20243;-66
2023/09/24 23:31:46;;;;;;;5.63;2.80;;;13.10;96.90;;;;;;20828234;28;20722;-66
2023/09/24 23:41:48;;;;;;;3.03;2.40;;;13.00;97.00;;;;;;20828108;28;20214;-64
2023/09/24 23:51:50;;;;;;;2.80;2.57;;;13.00;97.10;;;;;;20825359;28;20236;-64
